createdAt,value
2022-07-31T00:00:35.660Z,73.49
2022-07-31T00:02:38.704Z,74.03
2022-07-31T00:04:41.821Z,74.40
2022-07-31T00:06:45.446Z,74.45
2022-07-31T00:08:50.598Z,74.60
2022-07-31T00:10:54.042Z,74.95
2022-07-31T00:12:58.625Z,74.79
2022-07-31T00:15:01.891Z,74.62
2022-07-31T00:17:05.443Z,75.33
2022-07-31T00:19:08.825Z,75.04
2022-07-31T00:21:14.032Z,75.55
2022-07-31T00:23:18.927Z,74.58
2022-07-31T00:25:22.210Z,74.91
2022-07-31T00:27:25.486Z,76.13
2022-07-31T00:29:30.569Z,76.50
2022-07-31T00:31:33.726Z,76.01
2022-07-31T00:33:42.619Z,74.94
2022-07-31T00:35:45.762Z,75.58
2022-07-31T00:37:49.007Z,75.27
2022-07-31T00:39:52.118Z,76.11
2022-07-31T00:41:55.499Z,76.32
2022-07-31T00:43:58.526Z,75.48
2022-07-31T00:46:03.046Z,76.07
2022-07-31T00:48:07.086Z,76.34
2022-07-31T00:50:11.367Z,76.08
2022-07-31T00:52:14.475Z,76.49
2022-07-31T00:54:23.039Z,76.94
2022-07-31T00:56:26.686Z,76.55
2022-07-31T00:58:29.685Z,75.73
2022-07-31T01:00:32.791Z,76.59
2022-07-31T01:02:38.383Z,76.66
2022-07-31T01:04:49.843Z,75.29
2022-07-31T01:06:53.186Z,75.46
2022-07-31T01:08:56.387Z,74.62
2022-07-31T01:11:05.527Z,74.48
2022-07-31T01:13:19.189Z,75.53
2022-07-31T01:15:22.647Z,75.15
2022-07-31T01:17:26.742Z,75.33
2022-07-31T01:19:38.120Z,75.46
2022-07-31T01:21:56.015Z,75.11
2022-07-31T01:24:16.421Z,76.21
2022-07-31T01:26:50.060Z,75.86
2022-07-31T01:29:10.080Z,76.62
2022-07-31T01:31:26.642Z,75.03
2022-07-31T01:33:35.688Z,75.33
2022-07-31T01:35:43.617Z,75.19
2022-07-31T01:37:49.183Z,75.85
2022-07-31T01:39:56.179Z,75.69
2022-07-31T01:42:00.253Z,75.90
2022-07-31T01:44:05.821Z,76.29
2022-07-31T01:46:11.758Z,76.24
2022-07-31T01:48:17.152Z,76.35
2022-07-31T01:50:43.047Z,76.55
2022-07-31T01:52:45.043Z,75.93
2022-07-31T01:54:48.946Z,76.52
2022-07-31T01:56:52.255Z,76.97
2022-07-31T01:58:56.212Z,76.64
2022-07-31T02:01:27.273Z,76.53
2022-07-31T02:03:44.510Z,76.30
2022-07-31T02:05:50.450Z,77.15
2022-07-31T02:07:54.274Z,76.91
2022-07-31T02:10:00.662Z,77.14
2022-07-31T02:12:10.684Z,77.45
2022-07-31T02:14:15.525Z,77.51
2022-07-31T02:16:20.055Z,77.43
2022-07-31T02:18:28.782Z,77.77
2022-07-31T02:20:46.965Z,76.81
2022-07-31T02:22:50.099Z,77.43
2022-07-31T02:24:53.251Z,77.64
2022-07-31T02:26:56.575Z,77.75
2022-07-31T02:29:00.077Z,77.85
2022-07-31T02:31:04.003Z,78.41
2022-07-31T02:33:09.801Z,77.87
2022-07-31T02:35:14.940Z,78.38
2022-07-31T02:37:18.399Z,78.66
2022-07-31T02:39:22.087Z,78.29
2022-07-31T02:41:26.865Z,78.06
2022-07-31T02:43:30.378Z,79.41
2022-07-31T02:45:35.420Z,78.28
2022-07-31T02:47:40.431Z,78.26
2022-07-31T02:49:47.495Z,78.02
2022-07-31T02:51:52.866Z,78.74
2022-07-31T02:53:56.595Z,78.61
2022-07-31T02:56:04.263Z,79.01
2022-07-31T02:58:09.570Z,78.58
2022-07-31T03:00:22.669Z,79.51
2022-07-31T03:02:36.831Z,78.79
2022-07-31T03:04:41.573Z,79.22
2022-07-31T03:06:45.715Z,78.44
2022-07-31T03:08:50.112Z,79.10
2022-07-31T03:10:57.131Z,79.76
2022-07-31T03:13:02.055Z,79.66
2022-07-31T03:15:06.290Z,79.54
2022-07-31T03:17:10.470Z,79.35
2022-07-31T03:19:14.022Z,79.70
2022-07-31T03:21:18.995Z,79.43
2022-07-31T03:23:23.934Z,80.28
2022-07-31T03:25:34.400Z,79.86
2022-07-31T03:27:37.753Z,79.40
2022-07-31T03:29:43.720Z,79.88
2022-07-31T03:31:47.699Z,79.21
2022-07-31T03:33:50.898Z,80.79
2022-07-31T03:35:54.254Z,80.45
2022-07-31T03:37:57.449Z,80.25
2022-07-31T03:40:00.840Z,80.59
2022-07-31T03:42:05.903Z,80.69
2022-07-31T03:44:09.994Z,80.02
2022-07-31T03:46:13.714Z,80.33
2022-07-31T03:48:16.886Z,81.39
2022-07-31T03:50:20.058Z,80.43
2022-07-31T03:52:23.300Z,81.66
2022-07-31T03:54:26.482Z,81.56
2022-07-31T03:56:51.696Z,80.52
2022-07-31T03:58:56.851Z,80.55
2022-07-31T04:01:00.525Z,80.80
2022-07-31T04:03:07.704Z,80.84
2022-07-31T04:05:34.203Z,82.44
2022-07-31T04:07:37.306Z,81.94
2022-07-31T04:09:40.598Z,81.37
2022-07-31T04:11:45.536Z,81.49
2022-07-31T04:13:48.682Z,81.34
2022-07-31T04:15:53.089Z,81.21
2022-07-31T04:17:56.333Z,81.97
2022-07-31T04:20:07.121Z,82.00
2022-07-31T04:22:10.634Z,81.88
2022-07-31T04:24:16.984Z,82.53
2022-07-31T04:26:30.553Z,82.71
2022-07-31T04:28:37.647Z,82.91
2022-07-31T04:30:40.983Z,81.40
2022-07-31T04:32:45.501Z,83.36
2022-07-31T04:34:53.439Z,82.44
2022-07-31T04:36:56.589Z,82.04
2022-07-31T04:38:59.875Z,82.96
2022-07-31T04:41:02.948Z,83.29
2022-07-31T04:43:06.048Z,83.45
2022-07-31T04:45:10.690Z,82.91
2022-07-31T04:47:14.097Z,82.19
2022-07-31T04:49:21.480Z,82.98
2022-07-31T04:51:25.325Z,81.85
2022-07-31T04:53:28.475Z,83.06
2022-07-31T04:55:31.660Z,82.06
2022-07-31T04:57:35.246Z,81.83
2022-07-31T04:59:59.664Z,81.60
2022-07-31T05:02:02.041Z,81.90
2022-07-31T05:04:05.831Z,81.32
2022-07-31T05:06:13.831Z,81.86
2022-07-31T05:08:16.880Z,81.66
2022-07-31T05:10:39.583Z,81.26
2022-07-31T05:12:42.699Z,81.39
2022-07-31T05:14:45.728Z,80.86
2022-07-31T05:16:49.915Z,80.38
2022-07-31T05:18:54.207Z,80.36
2022-07-31T05:21:17.931Z,79.91
2022-07-31T05:23:50.735Z,79.54
2022-07-31T05:26:01.906Z,79.67
2022-07-31T05:28:08.882Z,81.63
2022-07-31T05:30:14.032Z,79.93
2022-07-31T05:32:17.586Z,79.46
2022-07-31T05:34:22.105Z,79.48
2022-07-31T05:36:27.544Z,78.30
2022-07-31T05:38:31.258Z,78.06
2022-07-31T05:40:55.316Z,77.02
2022-07-31T05:43:18.634Z,77.18
2022-07-31T05:45:42.013Z,77.00
2022-07-31T05:47:45.044Z,75.34
2022-07-31T05:49:48.943Z,75.31
2022-07-31T05:51:55.011Z,74.45
2022-07-31T05:53:58.065Z,76.26
2022-07-31T05:56:19.542Z,74.58
2022-07-31T05:58:25.980Z,77.07
2022-07-31T06:00:30.285Z,76.98
2022-07-31T06:02:35.540Z,76.33
2022-07-31T06:05:04.895Z,75.83
2022-07-31T06:07:09.570Z,74.70
2022-07-31T06:09:12.752Z,74.74
2022-07-31T06:11:19.593Z,74.04
2022-07-31T06:13:25.814Z,74.76
2022-07-31T06:15:32.088Z,74.20
2022-07-31T06:17:43.967Z,73.87
2022-07-31T06:20:02.402Z,75.04
2022-07-31T06:22:05.935Z,75.11
2022-07-31T06:24:10.946Z,73.55
2022-07-31T06:26:19.508Z,72.67
2022-07-31T06:28:47.599Z,73.36
2022-07-31T06:30:48.859Z,74.28
2022-07-31T06:32:51.979Z,74.65
2022-07-31T06:34:55.075Z,72.59
2022-07-31T06:36:58.595Z,72.61
2022-07-31T06:39:02.851Z,72.41
2022-07-31T06:41:07.192Z,73.81
2022-07-31T06:43:26.849Z,72.45
2022-07-31T06:45:52.886Z,73.40
2022-07-31T06:48:15.535Z,72.97
2022-07-31T06:50:23.237Z,73.57
2022-07-31T06:52:46.579Z,71.99
2022-07-31T06:54:49.740Z,72.11
2022-07-31T06:56:54.223Z,70.72
2022-07-31T06:58:57.359Z,71.66
2022-07-31T07:01:00.469Z,70.39
2022-07-31T07:03:03.581Z,70.23
2022-07-31T07:05:08.201Z,69.95
2022-07-31T07:07:11.984Z,71.08
2022-07-31T07:09:15.014Z,70.30
2022-07-31T07:11:18.183Z,69.28
2022-07-31T07:13:23.581Z,68.68
2022-07-31T07:15:26.899Z,67.18
2022-07-31T07:17:30.402Z,68.24
2022-07-31T07:19:33.849Z,67.97
2022-07-31T07:21:37.026Z,67.76
2022-07-31T07:23:40.373Z,67.61
2022-07-31T07:25:54.410Z,67.52
2022-07-31T07:27:59.109Z,68.04
2022-07-31T07:30:03.929Z,67.99
2022-07-31T07:32:07.491Z,67.75
2022-07-31T07:34:10.818Z,66.20
2022-07-31T07:36:23.410Z,66.24
2022-07-31T07:38:47.870Z,64.88
2022-07-31T07:40:52.287Z,65.08
2022-07-31T07:42:58.782Z,66.29
2022-07-31T07:45:08.217Z,63.57
2022-07-31T07:47:11.703Z,62.41
2022-07-31T07:49:14.797Z,61.23
2022-07-31T07:51:38.272Z,61.67
2022-07-31T07:54:16.321Z,61.44
2022-07-31T07:56:55.014Z,60.87
2022-07-31T07:59:16.515Z,61.51
2022-07-31T08:01:40.990Z,62.13
2022-07-31T08:04:01.930Z,63.19
2022-07-31T08:06:05.598Z,61.80
2022-07-31T08:08:13.157Z,62.46
2022-07-31T08:10:19.222Z,62.74
2022-07-31T08:12:45.579Z,62.41
2022-07-31T08:15:08.799Z,62.69
2022-07-31T08:17:20.488Z,62.58
2022-07-31T08:19:23.610Z,63.18
2022-07-31T08:21:27.256Z,62.30
2022-07-31T08:23:31.358Z,62.49
2022-07-31T08:25:34.505Z,61.71
2022-07-31T08:27:40.538Z,61.61
2022-07-31T08:29:45.748Z,61.13
2022-07-31T08:31:52.832Z,61.07
2022-07-31T08:34:31.324Z,61.57
2022-07-31T08:36:35.812Z,62.29
2022-07-31T08:38:39.570Z,61.11
2022-07-31T08:41:08.946Z,60.42
2022-07-31T08:44:00.366Z,59.74
2022-07-31T08:45:40.330Z,60.07
2022-07-31T08:47:56.893Z,59.54
2022-07-31T08:50:06.664Z,60.49
2022-07-31T08:52:13.926Z,60.00
2022-07-31T08:54:32.498Z,58.04
2022-07-31T08:56:38.055Z,57.42
2022-07-31T08:58:41.581Z,57.57
2022-07-31T09:00:44.710Z,55.53
2022-07-31T09:02:48.070Z,55.49
2022-07-31T09:05:13.930Z,55.49
2022-07-31T09:07:17.895Z,56.03
2022-07-31T09:09:21.005Z,55.56
2022-07-31T09:11:24.360Z,55.50
2022-07-31T09:14:02.362Z,54.60
2022-07-31T09:16:14.433Z,54.92
2022-07-31T09:18:19.570Z,55.75
2022-07-31T09:20:26.891Z,54.47
2022-07-31T09:22:32.336Z,54.36
2022-07-31T09:24:39.751Z,52.59
2022-07-31T09:26:44.444Z,52.04
2022-07-31T09:28:51.355Z,52.67
2022-07-31T09:30:57.034Z,50.74
2022-07-31T09:33:29.618Z,50.51
2022-07-31T09:35:53.649Z,50.43
2022-07-31T09:37:57.961Z,52.03
2022-07-31T09:40:21.097Z,50.43
2022-07-31T09:42:56.436Z,52.27
2022-07-31T09:45:02.758Z,50.69
2022-07-31T09:47:07.690Z,49.72
2022-07-31T09:49:11.264Z,48.91
2022-07-31T09:51:17.513Z,49.72
2022-07-31T09:53:20.867Z,48.71
2022-07-31T09:55:27.844Z,47.10
2022-07-31T09:57:31.104Z,47.77
2022-07-31T09:59:38.083Z,48.03
2022-07-31T10:01:41.811Z,47.64
2022-07-31T10:03:46.390Z,46.49
2022-07-31T10:05:50.624Z,46.01
2022-07-31T10:07:55.518Z,46.11
2022-07-31T10:10:09.532Z,45.96
2022-07-31T10:12:30.993Z,46.82
2022-07-31T10:14:40.153Z,46.05
2022-07-31T10:16:45.134Z,46.65
2022-07-31T10:19:11.670Z,46.49
2022-07-31T10:21:43.051Z,46.44
2022-07-31T10:23:56.214Z,48.63
2022-07-31T10:26:00.771Z,47.25
2022-07-31T10:28:04.535Z,46.48
2022-07-31T10:30:08.909Z,47.03
2022-07-31T10:32:17.754Z,47.20
2022-07-31T10:34:59.066Z,47.05
2022-07-31T10:37:32.740Z,47.43
2022-07-31T10:39:58.513Z,46.66
2022-07-31T10:42:14.114Z,45.81
2022-07-31T10:44:23.355Z,46.33
2022-07-31T10:46:52.305Z,46.77
2022-07-31T10:49:15.840Z,47.17
2022-07-31T10:51:47.692Z,47.45
2022-07-31T10:54:11.566Z,46.28
2022-07-31T10:56:47.496Z,46.60
2022-07-31T10:59:29.110Z,46.25
2022-07-31T11:01:55.058Z,47.34
2022-07-31T11:04:32.962Z,48.11
2022-07-31T11:06:46.696Z,48.26
2022-07-31T11:09:08.598Z,47.49
2022-07-31T11:11:33.414Z,47.24
2022-07-31T11:13:58.143Z,47.48
2022-07-31T11:16:13.474Z,46.54
2022-07-31T11:18:26.743Z,47.33
2022-07-31T11:20:43.148Z,45.92
2022-07-31T11:22:54.325Z,46.13
2022-07-31T11:24:58.693Z,46.20
2022-07-31T11:27:02.057Z,46.63
2022-07-31T11:30:00.379Z,46.38
2022-07-31T11:31:31.070Z,46.49
2022-07-31T11:33:41.963Z,46.85
2022-07-31T11:35:46.377Z,45.74
2022-07-31T11:37:57.782Z,46.88
2022-07-31T11:40:01.882Z,48.11
2022-07-31T11:42:07.586Z,48.04
2022-07-31T11:44:12.344Z,47.52
2022-07-31T11:46:20.108Z,48.59
2022-07-31T11:48:27.772Z,47.13
2022-07-31T11:50:32.324Z,47.90
2022-07-31T11:52:36.973Z,46.66
2022-07-31T11:54:42.070Z,46.53
2022-07-31T11:56:45.178Z,47.64
2022-07-31T11:58:49.534Z,48.54
2022-07-31T12:00:55.114Z,47.42
2022-07-31T12:02:58.973Z,46.13
2022-07-31T12:05:04.151Z,47.70
2022-07-31T12:07:08.414Z,46.67
2022-07-31T12:10:01.177Z,46.44
2022-07-31T12:11:34.887Z,46.02
2022-07-31T12:13:38.521Z,45.80
2022-07-31T12:15:42.326Z,47.61
2022-07-31T12:17:47.181Z,46.33
2022-07-31T12:19:52.852Z,46.37
2022-07-31T12:21:58.256Z,47.66
2022-07-31T12:24:02.349Z,47.25
2022-07-31T12:26:05.445Z,47.30
2022-07-31T12:28:10.097Z,47.66
2022-07-31T12:30:17.062Z,47.13
2022-07-31T12:32:25.752Z,46.08
2022-07-31T12:34:31.994Z,46.94
2022-07-31T12:36:35.070Z,48.07
2022-07-31T12:38:44.707Z,47.66
2022-07-31T12:40:49.286Z,47.47
2022-07-31T12:42:52.669Z,48.13
2022-07-31T12:44:57.553Z,47.30
2022-07-31T12:47:01.486Z,48.46
2022-07-31T12:49:05.054Z,47.98
2022-07-31T12:51:09.499Z,46.96
2022-07-31T12:53:12.708Z,47.75
2022-07-31T12:55:17.220Z,48.49
2022-07-31T12:57:21.175Z,47.13
2022-07-31T12:59:24.274Z,47.91
2022-07-31T13:01:27.457Z,47.37
2022-07-31T13:03:38.951Z,47.40
2022-07-31T13:05:52.117Z,47.14
2022-07-31T13:07:56.867Z,47.65
2022-07-31T13:10:15.045Z,48.08
2022-07-31T13:12:23.046Z,48.30
2022-07-31T13:14:26.117Z,48.42
2022-07-31T13:16:29.389Z,48.62
2022-07-31T13:18:35.561Z,49.68
2022-07-31T13:20:38.818Z,48.95
2022-07-31T13:22:41.895Z,48.95
2022-07-31T13:24:46.313Z,47.85
2022-07-31T13:26:49.951Z,48.91
2022-07-31T13:28:52.984Z,49.08
2022-07-31T13:30:56.057Z,48.34
2022-07-31T13:32:59.135Z,48.30
2022-07-31T13:35:25.930Z,48.67
2022-07-31T13:37:25.458Z,48.35
2022-07-31T13:39:28.557Z,48.92
2022-07-31T13:41:35.107Z,48.52
2022-07-31T13:43:38.743Z,49.21
2022-07-31T13:46:01.871Z,48.96
2022-07-31T13:48:09.359Z,48.77
2022-07-31T13:50:12.887Z,47.97
2022-07-31T13:52:15.974Z,48.15
2022-07-31T13:54:19.031Z,47.68
2022-07-31T13:56:39.679Z,47.59
2022-07-31T13:58:48.067Z,48.14
2022-07-31T14:00:51.108Z,47.51
2022-07-31T14:02:54.179Z,48.40
2022-07-31T14:04:57.275Z,47.80
2022-07-31T14:07:00.822Z,47.69
2022-07-31T14:09:04.138Z,47.43
2022-07-31T14:11:13.757Z,48.35
2022-07-31T14:13:18.456Z,47.82
2022-07-31T14:15:25.377Z,48.16
2022-07-31T14:17:31.707Z,48.35
2022-07-31T14:19:44.049Z,47.22
2022-07-31T14:21:50.042Z,48.18
2022-07-31T14:23:59.742Z,47.18
2022-07-31T14:26:03.531Z,47.63
2022-07-31T14:28:07.015Z,47.30
2022-07-31T14:30:11.298Z,47.96
2022-07-31T14:32:16.052Z,47.41
2022-07-31T14:34:19.161Z,46.77
2022-07-31T14:36:22.571Z,48.00
2022-07-31T14:38:27.584Z,47.46
2022-07-31T14:40:30.987Z,46.54
2022-07-31T14:42:34.062Z,46.19
2022-07-31T14:44:38.316Z,47.05
2022-07-31T14:46:41.552Z,47.99
2022-07-31T14:48:46.093Z,46.76
2022-07-31T14:50:49.366Z,47.24
2022-07-31T14:52:52.464Z,46.84
2022-07-31T14:54:55.769Z,47.38
2022-07-31T14:57:01.874Z,47.48
2022-07-31T14:59:05.305Z,47.71
2022-07-31T15:01:08.430Z,46.35
2022-07-31T15:03:11.648Z,46.93
2022-07-31T15:06:38.649Z,46.32
2022-07-31T15:07:46.263Z,46.68
2022-07-31T15:09:49.795Z,47.10
2022-07-31T15:12:00.480Z,46.22
2022-07-31T15:14:05.040Z,47.32
2022-07-31T15:16:09.421Z,46.81
2022-07-31T15:18:12.688Z,47.62
2022-07-31T15:20:17.222Z,47.65
2022-07-31T15:22:20.451Z,47.91
2022-07-31T15:24:23.604Z,47.18
2022-07-31T15:26:27.245Z,47.84
2022-07-31T15:28:30.315Z,47.66
2022-07-31T15:30:33.381Z,48.16
2022-07-31T15:32:37.469Z,48.49
2022-07-31T15:34:40.619Z,47.36
2022-07-31T15:36:45.140Z,47.55
2022-07-31T15:38:48.214Z,48.30
2022-07-31T15:40:51.447Z,47.25
2022-07-31T15:42:54.618Z,48.15
2022-07-31T15:44:57.997Z,48.33
2022-07-31T15:47:01.165Z,48.29
2022-07-31T15:49:05.648Z,48.88
2022-07-31T15:51:10.453Z,48.23
2022-07-31T15:53:14.951Z,47.97
2022-07-31T15:55:21.792Z,47.97
2022-07-31T15:57:25.625Z,47.51
2022-07-31T15:59:28.816Z,47.17
2022-07-31T16:01:32.079Z,47.74
2022-07-31T16:03:50.406Z,47.45
2022-07-31T16:05:56.257Z,47.96
2022-07-31T16:08:29.795Z,47.21
2022-07-31T16:10:24.164Z,47.11
2022-07-31T16:12:27.710Z,47.58
2022-07-31T16:14:33.596Z,47.58
2022-07-31T16:16:37.130Z,46.84
2022-07-31T16:18:40.323Z,47.44
2022-07-31T16:20:44.504Z,47.71
2022-07-31T16:22:51.312Z,46.86
2022-07-31T16:24:57.247Z,47.31
2022-07-31T16:27:01.880Z,47.74
2022-07-31T16:29:05.522Z,47.28
2022-07-31T16:31:12.909Z,47.04
2022-07-31T16:33:33.588Z,47.40
2022-07-31T16:35:36.754Z,46.71
2022-07-31T16:37:50.027Z,46.79
2022-07-31T16:39:56.839Z,46.96
2022-07-31T16:42:01.270Z,46.76
2022-07-31T16:44:04.853Z,47.06
2022-07-31T16:46:08.113Z,47.01
2022-07-31T16:48:11.222Z,45.82
2022-07-31T16:50:14.389Z,46.29
2022-07-31T16:52:17.835Z,47.31
2022-07-31T16:54:20.925Z,46.51
2022-07-31T16:56:24.036Z,46.48
2022-07-31T16:58:28.573Z,46.71
2022-07-31T17:00:31.814Z,47.11
2022-07-31T17:02:34.988Z,47.82
2022-07-31T17:04:38.075Z,47.64
2022-07-31T17:06:41.207Z,47.79
2022-07-31T17:08:44.719Z,47.70
2022-07-31T17:10:52.496Z,48.60
2022-07-31T17:12:57.696Z,48.25
2022-07-31T17:15:02.171Z,48.37
2022-07-31T17:17:05.662Z,48.16
2022-07-31T17:19:08.881Z,48.24
2022-07-31T17:21:16.385Z,48.38
2022-07-31T17:23:42.938Z,48.64
2022-07-31T17:25:42.643Z,48.31
2022-07-31T17:27:45.717Z,48.33
2022-07-31T17:29:48.776Z,48.76
2022-07-31T17:31:53.218Z,48.05
2022-07-31T17:34:00.617Z,48.50
2022-07-31T17:36:05.130Z,48.46
2022-07-31T17:38:08.272Z,48.91
2022-07-31T17:40:33.540Z,48.75
2022-07-31T17:42:34.848Z,48.52
2022-07-31T17:44:38.077Z,48.60
2022-07-31T17:46:48.089Z,48.96
2022-07-31T17:48:54.341Z,49.23
2022-07-31T17:50:59.963Z,49.43
2022-07-31T17:53:03.201Z,49.52
2022-07-31T17:55:07.959Z,49.62
2022-07-31T17:57:11.003Z,49.56
2022-07-31T17:59:16.051Z,49.60
2022-07-31T18:01:19.177Z,49.25
2022-07-31T18:03:22.562Z,49.78
2022-07-31T18:05:27.132Z,50.21
2022-07-31T18:07:30.214Z,50.33
2022-07-31T18:09:36.543Z,49.93
2022-07-31T18:11:39.807Z,50.29
2022-07-31T18:13:48.780Z,50.25
2022-07-31T18:15:54.995Z,50.69
2022-07-31T18:17:58.086Z,50.16
2022-07-31T18:20:01.282Z,50.36
2022-07-31T18:22:06.089Z,50.68
2022-07-31T18:24:09.653Z,51.38
2022-07-31T18:26:12.801Z,50.72
2022-07-31T18:28:16.114Z,50.94
2022-07-31T18:30:19.401Z,51.52
2022-07-31T18:32:22.548Z,51.52
2022-07-31T18:34:25.665Z,51.08
2022-07-31T18:36:28.849Z,51.22
2022-07-31T18:38:33.343Z,51.92
2022-07-31T18:40:36.843Z,51.75
2022-07-31T18:42:39.935Z,52.08
2022-07-31T18:44:43.066Z,51.51
2022-07-31T18:46:46.243Z,51.79
2022-07-31T18:48:54.657Z,52.21
2022-07-31T18:51:04.572Z,52.17
2022-07-31T18:53:08.330Z,51.72
2022-07-31T18:55:12.926Z,52.19
2022-07-31T18:57:16.049Z,52.58
2022-07-31T18:59:19.209Z,51.60
2022-07-31T19:01:22.751Z,52.50
2022-07-31T19:03:29.676Z,52.15
2022-07-31T19:05:32.885Z,52.36
2022-07-31T19:07:37.367Z,52.87
2022-07-31T19:09:40.808Z,52.15
2022-07-31T19:11:51.167Z,52.66
2022-07-31T19:13:55.406Z,52.60
2022-07-31T19:15:58.664Z,52.90
2022-07-31T19:18:02.334Z,53.92
2022-07-31T19:20:07.295Z,53.78
2022-07-31T19:22:15.694Z,53.95
2022-07-31T19:24:19.169Z,53.47
2022-07-31T19:26:22.272Z,52.79
2022-07-31T19:28:27.443Z,53.05
2022-07-31T19:30:30.938Z,53.29
2022-07-31T19:32:35.179Z,54.06
2022-07-31T19:34:38.674Z,55.44
2022-07-31T19:36:46.317Z,55.54
2022-07-31T19:38:51.799Z,55.60
2022-07-31T19:40:54.956Z,56.97
2022-07-31T19:42:59.636Z,57.79
2022-07-31T19:45:04.650Z,57.25
2022-07-31T19:47:07.894Z,58.23
2022-07-31T19:49:11.045Z,58.15
2022-07-31T19:51:15.608Z,58.34
2022-07-31T19:53:18.740Z,59.51
2022-07-31T19:55:21.803Z,58.35
2022-07-31T19:57:25.312Z,57.88
2022-07-31T19:59:28.971Z,57.64
2022-07-31T20:01:33.491Z,58.05
2022-07-31T20:03:37.238Z,58.54
2022-07-31T20:05:40.387Z,58.46
2022-07-31T20:07:43.647Z,58.98
2022-07-31T20:09:47.940Z,58.89
2022-07-31T20:11:51.091Z,59.09
2022-07-31T20:13:54.207Z,59.35
2022-07-31T20:15:57.313Z,59.25
2022-07-31T20:18:01.823Z,58.94
2022-07-31T20:20:15.534Z,59.10
2022-07-31T20:22:19.322Z,59.40
2022-07-31T20:24:25.320Z,59.67
2022-07-31T20:26:29.321Z,59.47
2022-07-31T20:28:32.514Z,58.88
2022-07-31T20:30:35.866Z,60.04
2022-07-31T20:32:39.073Z,60.33
2022-07-31T20:34:53.378Z,61.04
2022-07-31T20:36:58.648Z,60.55
2022-07-31T20:39:02.369Z,61.66
2022-07-31T20:41:05.496Z,62.80
2022-07-31T20:43:08.655Z,62.14
2022-07-31T20:45:12.423Z,62.42
2022-07-31T20:47:15.591Z,62.27
2022-07-31T20:49:19.643Z,60.72
2022-07-31T20:51:40.056Z,60.30
2022-07-31T20:53:44.001Z,60.32
2022-07-31T20:55:49.728Z,61.96
2022-07-31T20:57:53.060Z,62.09
2022-07-31T20:59:56.140Z,62.75
2022-07-31T21:01:59.281Z,62.03
2022-07-31T21:04:02.708Z,62.17
2022-07-31T21:06:06.894Z,63.02
2022-07-31T21:08:11.965Z,62.30
2022-07-31T21:10:15.873Z,62.28
2022-07-31T21:12:18.948Z,62.80
2022-07-31T21:14:22.133Z,62.71
2022-07-31T21:16:25.291Z,61.89
2022-07-31T21:18:32.733Z,62.74
2022-07-31T21:20:52.247Z,61.27
2022-07-31T21:22:56.493Z,61.90
2022-07-31T21:25:04.401Z,62.50
2022-07-31T21:27:09.027Z,62.95
2022-07-31T21:29:12.392Z,62.90
2022-07-31T21:31:15.845Z,62.83
2022-07-31T21:33:19.220Z,63.41
2022-07-31T21:35:36.644Z,63.71
2022-07-31T21:37:40.766Z,63.58
2022-07-31T21:39:44.651Z,63.02
2022-07-31T21:41:49.808Z,62.63
2022-07-31T21:43:59.339Z,62.46
2022-07-31T21:46:04.731Z,63.38
2022-07-31T21:48:12.962Z,62.64
2022-07-31T21:50:16.898Z,63.10
2022-07-31T21:52:32.364Z,62.97
2022-07-31T21:54:35.584Z,62.87
2022-07-31T21:56:38.721Z,62.94
2022-07-31T21:58:44.223Z,63.46
2022-07-31T22:00:47.940Z,64.72
2022-07-31T22:02:51.211Z,63.91
2022-07-31T22:05:23.271Z,64.49
2022-07-31T22:07:35.080Z,63.56
2022-07-31T22:09:40.648Z,63.73
2022-07-31T22:11:43.797Z,64.42
2022-07-31T22:14:06.175Z,64.53
2022-07-31T22:16:10.126Z,64.47
2022-07-31T22:18:13.500Z,64.85
2022-07-31T22:20:19.734Z,64.52
2022-07-31T22:22:23.860Z,64.78
2022-07-31T22:24:27.311Z,63.88
2022-07-31T22:26:31.978Z,64.67
2022-07-31T22:28:34.867Z,64.07
2022-07-31T22:30:39.776Z,63.84
2022-07-31T22:32:42.927Z,64.07
2022-07-31T22:34:46.284Z,63.51
2022-07-31T22:36:49.393Z,64.43
2022-07-31T22:38:52.650Z,63.92
2022-07-31T22:40:55.844Z,64.72
2022-07-31T22:42:59.274Z,65.70
2022-07-31T22:45:06.573Z,65.03
2022-07-31T22:47:11.242Z,64.11
2022-07-31T22:49:14.876Z,63.67
2022-07-31T22:51:18.275Z,64.74
2022-07-31T22:53:21.322Z,64.09
2022-07-31T22:55:24.353Z,65.43
2022-07-31T22:57:27.457Z,65.09
2022-07-31T22:59:30.550Z,64.17
2022-07-31T23:01:34.010Z,64.58
2022-07-31T23:03:39.894Z,65.40
2022-07-31T23:06:02.397Z,64.83
2022-07-31T23:08:06.531Z,65.06
2022-07-31T23:10:12.272Z,65.32
2022-07-31T23:12:15.376Z,64.63
2022-07-31T23:14:18.690Z,64.97
2022-07-31T23:16:21.972Z,64.44
2022-07-31T23:18:25.048Z,64.37
2022-07-31T23:20:29.600Z,64.25
2022-07-31T23:22:34.167Z,64.18
2022-07-31T23:24:37.566Z,64.21
2022-07-31T23:26:40.680Z,64.27
2022-07-31T23:28:43.719Z,64.86
2022-07-31T23:30:46.782Z,64.98
2022-07-31T23:32:49.908Z,65.44
2022-07-31T23:34:53.198Z,65.16
2022-07-31T23:36:57.668Z,65.52
2022-07-31T23:39:00.781Z,65.25
2022-07-31T23:41:04.087Z,65.18
2022-07-31T23:43:06.108Z,65.48
2022-07-31T23:45:11.280Z,64.90
2022-07-31T23:47:16.032Z,65.37
2022-07-31T23:49:19.330Z,66.09
2022-07-31T23:51:22.388Z,65.60
2022-07-31T23:53:26.887Z,66.54
2022-07-31T23:55:29.935Z,67.09
2022-07-31T23:57:34.388Z,67.47
2022-07-31T23:59:37.922Z,67.67
